sensor_id;sensor_type;location;lat;lon;timestamp;pressure;altitude;pressure_sealevel;temperature;humidity
49463;BME280;35357;51.722;0.500;2023-07-13T00:01:12;101136.94;;;14.78;85.53
49463;BME280;35357;51.722;0.500;2023-07-13T00:03:39;101139.30;;;14.60;86.62
49463;BME280;35357;51.722;0.500;2023-07-13T00:06:07;101138.12;;;14.88;86.19
49463;BME280;35357;51.722;0.500;2023-07-13T00:08:35;101138.02;;;15.25;84.52
49463;BME280;35357;51.722;0.500;2023-07-13T00:11:03;101140.29;;;13.98;88.70
49463;BME280;35357;51.722;0.500;2023-07-13T00:13:31;101143.68;;;15.50;84.37
49463;BME280;35357;51.722;0.500;2023-07-13T00:15:58;101143.28;;;15.54;82.55
49463;BME280;35357;51.722;0.500;2023-07-13T00:18:25;101142.50;;;15.61;83.61
49463;BME280;35357;51.722;0.500;2023-07-13T00:20:52;101145.78;;;15.33;84.95
49463;BME280;35357;51.722;0.500;2023-07-13T00:23:19;101146.88;;;16.10;82.49
49463;BME280;35357;51.722;0.500;2023-07-13T00:25:45;101148.03;;;16.48;79.59
49463;BME280;35357;51.722;0.500;2023-07-13T00:28:12;101149.32;;;16.45;79.78
49463;BME280;35357;51.722;0.500;2023-07-13T00:30:39;101150.93;;;16.37;79.60
49463;BME280;35357;51.722;0.500;2023-07-13T00:33:06;101148.03;;;16.95;77.16
49463;BME280;35357;51.722;0.500;2023-07-13T00:35:34;101147.56;;;16.07;79.87
49463;BME280;35357;51.722;0.500;2023-07-13T00:38:01;101147.69;;;15.68;81.23
49463;BME280;35357;51.722;0.500;2023-07-13T00:40:28;101153.17;;;15.90;80.74
49463;BME280;35357;51.722;0.500;2023-07-13T00:42:58;101150.59;;;15.60;83.01
49463;BME280;35357;51.722;0.500;2023-07-13T00:46:31;101152.58;;;15.42;83.41
49463;BME280;35357;51.722;0.500;2023-07-13T00:49:02;101154.06;;;16.16;80.04
49463;BME280;35357;51.722;0.500;2023-07-13T00:51:34;101158.44;;;16.72;78.59
49463;BME280;35357;51.722;0.500;2023-07-13T00:54:06;101160.59;;;15.58;81.24
49463;BME280;35357;51.722;0.500;2023-07-13T00:56:34;101157.57;;;15.87;80.91
49463;BME280;35357;51.722;0.500;2023-07-13T00:59:03;101155.05;;;16.43;78.23
49463;BME280;35357;51.722;0.500;2023-07-13T01:01:32;101150.79;;;16.23;80.01
49463;BME280;35357;51.722;0.500;2023-07-13T01:03:59;101155.92;;;15.36;82.51
49463;BME280;35357;51.722;0.500;2023-07-13T01:06:26;101159.17;;;15.86;81.52
49463;BME280;35357;51.722;0.500;2023-07-13T01:08:52;101155.81;;;17.10;78.65
49463;BME280;35357;51.722;0.500;2023-07-13T01:11:21;101158.45;;;17.02;78.47
49463;BME280;35357;51.722;0.500;2023-07-13T01:13:49;101162.69;;;17.20;78.46
49463;BME280;35357;51.722;0.500;2023-07-13T01:16:22;101165.59;;;17.08;78.88
49463;BME280;35357;51.722;0.500;2023-07-13T01:18:50;101169.40;;;17.25;78.38
49463;BME280;35357;51.722;0.500;2023-07-13T01:21:18;101165.70;;;17.40;77.78
49463;BME280;35357;51.722;0.500;2023-07-13T01:23:45;101169.20;;;17.05;77.65
49463;BME280;35357;51.722;0.500;2023-07-13T01:26:13;101168.10;;;17.11;77.52
49463;BME280;35357;51.722;0.500;2023-07-13T01:28:40;101167.07;;;17.35;77.28
49463;BME280;35357;51.722;0.500;2023-07-13T01:31:07;101166.09;;;17.37;77.18
49463;BME280;35357;51.722;0.500;2023-07-13T01:33:36;101167.94;;;17.20;76.55
49463;BME280;35357;51.722;0.500;2023-07-13T01:36:04;101168.54;;;17.32;77.15
49463;BME280;35357;51.722;0.500;2023-07-13T01:38:33;101170.02;;;17.34;77.33
49463;BME280;35357;51.722;0.500;2023-07-13T01:41:00;101169.45;;;17.18;77.25
49463;BME280;35357;51.722;0.500;2023-07-13T01:43:28;101170.90;;;17.53;77.23
49463;BME280;35357;51.722;0.500;2023-07-13T01:45:56;101168.33;;;17.31;77.00
49463;BME280;35357;51.722;0.500;2023-07-13T01:48:23;101165.05;;;17.53;76.89
49463;BME280;35357;51.722;0.500;2023-07-13T01:50:50;101162.61;;;17.14;77.10
49463;BME280;35357;51.722;0.500;2023-07-13T01:53:17;101160.91;;;17.07;76.98
49463;BME280;35357;51.722;0.500;2023-07-13T01:55:44;101162.13;;;17.31;76.96
49463;BME280;35357;51.722;0.500;2023-07-13T01:58:11;101162.28;;;17.05;77.08
49463;BME280;35357;51.722;0.500;2023-07-13T02:00:38;101163.51;;;17.04;77.35
49463;BME280;35357;51.722;0.500;2023-07-13T02:03:05;101159.59;;;17.10;77.73
49463;BME280;35357;51.722;0.500;2023-07-13T02:05:32;101160.90;;;17.33;77.84
49463;BME280;35357;51.722;0.500;2023-07-13T02:08:00;101158.96;;;17.02;77.68
49463;BME280;35357;51.722;0.500;2023-07-13T02:10:27;101157.60;;;17.06;77.59
49463;BME280;35357;51.722;0.500;2023-07-13T02:12:55;101154.11;;;16.76;77.50
49463;BME280;35357;51.722;0.500;2023-07-13T02:15:22;101152.10;;;17.06;77.50
49463;BME280;35357;51.722;0.500;2023-07-13T02:17:50;101151.18;;;17.17;77.98
49463;BME280;35357;51.722;0.500;2023-07-13T02:20:17;101149.70;;;17.16;77.84
49463;BME280;35357;51.722;0.500;2023-07-13T02:22:44;101146.33;;;17.11;77.97
49463;BME280;35357;51.722;0.500;2023-07-13T02:25:11;101146.43;;;17.08;78.06
49463;BME280;35357;51.722;0.500;2023-07-13T02:27:38;101148.15;;;16.81;78.81
49463;BME280;35357;51.722;0.500;2023-07-13T02:30:06;66588.06;;;15.50;81.20
49463;BME280;35357;51.722;0.500;2023-07-13T02:32:34;101155.12;;;16.79;78.60
49463;BME280;35357;51.722;0.500;2023-07-13T02:35:02;101151.11;;;16.63;78.71
49463;BME280;35357;51.722;0.500;2023-07-13T02:37:30;101146.70;;;17.01;78.62
49463;BME280;35357;51.722;0.500;2023-07-13T02:39:57;101142.43;;;16.78;78.59
49463;BME280;35357;51.722;0.500;2023-07-13T02:42:24;101141.94;;;16.82;78.70
49463;BME280;35357;51.722;0.500;2023-07-13T02:44:51;101142.14;;;16.82;78.52
49463;BME280;35357;51.722;0.500;2023-07-13T02:47:18;101145.17;;;16.72;78.65
49463;BME280;35357;51.722;0.500;2023-07-13T02:49:45;101146.15;;;17.11;79.12
49463;BME280;35357;51.722;0.500;2023-07-13T02:52:12;101149.97;;;16.48;79.74
49463;BME280;35357;51.722;0.500;2023-07-13T02:54:40;101150.81;;;16.65;79.83
49463;BME280;35357;51.722;0.500;2023-07-13T02:57:07;101151.66;;;16.37;80.04
49463;BME280;35357;51.722;0.500;2023-07-13T02:59:34;101150.46;;;16.38;80.01
49463;BME280;35357;51.722;0.500;2023-07-13T03:02:02;101151.60;;;16.51;79.35
49463;BME280;35357;51.722;0.500;2023-07-13T03:04:29;101154.55;;;16.48;79.56
49463;BME280;35357;51.722;0.500;2023-07-13T03:06:57;101154.04;;;16.41;79.64
49463;BME280;35357;51.722;0.500;2023-07-13T03:09:25;101150.98;;;16.62;79.53
49463;BME280;35357;51.722;0.500;2023-07-13T03:11:53;101148.56;;;16.63;79.47
49463;BME280;35357;51.722;0.500;2023-07-13T03:14:21;101149.53;;;16.40;79.46
49463;BME280;35357;51.722;0.500;2023-07-13T03:16:48;101154.09;;;16.51;79.05
49463;BME280;35357;51.722;0.500;2023-07-13T03:19:15;101156.97;;;16.52;78.95
49463;BME280;35357;51.722;0.500;2023-07-13T03:21:42;101156.92;;;16.50;78.98
49463;BME280;35357;51.722;0.500;2023-07-13T03:24:09;101157.49;;;16.32;79.48
49463;BME280;35357;51.722;0.500;2023-07-13T03:26:39;101158.00;;;16.42;79.18
49463;BME280;35357;51.722;0.500;2023-07-13T03:29:06;101168.33;;;16.12;80.71
49463;BME280;35357;51.722;0.500;2023-07-13T03:31:35;101165.86;;;16.19;80.16
49463;BME280;35357;51.722;0.500;2023-07-13T03:34:03;101168.84;;;16.39;80.46
49463;BME280;35357;51.722;0.500;2023-07-13T03:36:32;101170.95;;;16.40;79.67
49463;BME280;35357;51.722;0.500;2023-07-13T03:39:01;101175.37;;;15.66;80.55
49463;BME280;35357;51.722;0.500;2023-07-13T03:41:29;101175.98;;;15.76;82.87
49463;BME280;35357;51.722;0.500;2023-07-13T03:43:56;101174.83;;;15.66;83.30
49463;BME280;35357;51.722;0.500;2023-07-13T03:46:23;101176.36;;;16.10;82.02
49463;BME280;35357;51.722;0.500;2023-07-13T03:48:50;101171.74;;;15.64;83.49
49463;BME280;35357;51.722;0.500;2023-07-13T03:51:18;101171.32;;;15.09;85.78
49463;BME280;35357;51.722;0.500;2023-07-13T03:53:47;101174.04;;;15.25;85.45
49463;BME280;35357;51.722;0.500;2023-07-13T03:56:15;101180.23;;;16.04;82.76
49463;BME280;35357;51.722;0.500;2023-07-13T03:58:45;101183.26;;;16.23;81.84
49463;BME280;35357;51.722;0.500;2023-07-13T04:01:14;101183.10;;;16.10;81.18
49463;BME280;35357;51.722;0.500;2023-07-13T04:03:42;101183.07;;;16.41;81.20
49463;BME280;35357;51.722;0.500;2023-07-13T04:06:15;101182.53;;;16.26;80.81
49463;BME280;35357;51.722;0.500;2023-07-13T04:08:42;101185.40;;;16.30;80.66
49463;BME280;35357;51.722;0.500;2023-07-13T04:11:09;101185.94;;;16.16;80.31
49463;BME280;35357;51.722;0.500;2023-07-13T04:13:36;101187.36;;;16.60;80.27
49463;BME280;35357;51.722;0.500;2023-07-13T04:16:04;101194.09;;;16.65;79.93
49463;BME280;35357;51.722;0.500;2023-07-13T04:18:31;101198.01;;;16.49;80.17
49463;BME280;35357;51.722;0.500;2023-07-13T04:20:57;101201.21;;;15.98;80.93
49463;BME280;35357;51.722;0.500;2023-07-13T04:23:24;101204.63;;;16.05;82.39
49463;BME280;35357;51.722;0.500;2023-07-13T04:25:53;101203.06;;;15.91;83.87
49463;BME280;35357;51.722;0.500;2023-07-13T04:28:22;101204.77;;;16.36;82.25
49463;BME280;35357;51.722;0.500;2023-07-13T04:30:50;101211.42;;;16.08;82.62
49463;BME280;35357;51.722;0.500;2023-07-13T04:33:18;101210.72;;;15.98;84.30
49463;BME280;35357;51.722;0.500;2023-07-13T04:35:45;101210.22;;;16.21;82.31
49463;BME280;35357;51.722;0.500;2023-07-13T04:38:12;101212.12;;;16.04;83.38
49463;BME280;35357;51.722;0.500;2023-07-13T04:40:39;101210.43;;;15.39;85.97
49463;BME280;35357;51.722;0.500;2023-07-13T04:43:06;101210.26;;;15.09;87.28
49463;BME280;35357;51.722;0.500;2023-07-13T04:45:35;101211.91;;;15.95;85.38
49463;BME280;35357;51.722;0.500;2023-07-13T04:48:02;101213.35;;;15.67;86.30
49463;BME280;35357;51.722;0.500;2023-07-13T04:50:28;101218.64;;;15.86;84.80
49463;BME280;35357;51.722;0.500;2023-07-13T04:52:57;101219.11;;;16.19;84.66
49463;BME280;35357;51.722;0.500;2023-07-13T04:55:24;101219.23;;;16.23;84.21
49463;BME280;35357;51.722;0.500;2023-07-13T04:57:51;101218.10;;;16.25;83.19
49463;BME280;35357;51.722;0.500;2023-07-13T05:00:18;101212.78;;;15.69;86.69
49463;BME280;35357;51.722;0.500;2023-07-13T05:02:46;101214.69;;;14.84;91.09
49463;BME280;35357;51.722;0.500;2023-07-13T05:05:13;101219.40;;;15.70;87.26
49463;BME280;35357;51.722;0.500;2023-07-13T05:07:41;101221.70;;;15.80;88.61
49463;BME280;35357;51.722;0.500;2023-07-13T05:10:09;101217.77;;;15.36;87.92
49463;BME280;35357;51.722;0.500;2023-07-13T05:12:36;101222.90;;;15.38;89.40
49463;BME280;35357;51.722;0.500;2023-07-13T05:15:04;101226.87;;;15.93;85.96
49463;BME280;35357;51.722;0.500;2023-07-13T05:17:31;101226.86;;;15.71;88.21
49463;BME280;35357;51.722;0.500;2023-07-13T05:19:58;101226.20;;;16.39;84.11
49463;BME280;35357;51.722;0.500;2023-07-13T05:22:25;101232.72;;;15.86;85.86
49463;BME280;35357;51.722;0.500;2023-07-13T05:24:52;101231.71;;;14.14;92.36
49463;BME280;35357;51.722;0.500;2023-07-13T05:27:19;101230.51;;;15.22;91.38
49463;BME280;35357;51.722;0.500;2023-07-13T05:29:46;101231.95;;;14.54;94.30
49463;BME280;35357;51.722;0.500;2023-07-13T05:32:14;101236.04;;;15.62;92.59
49463;BME280;35357;51.722;0.500;2023-07-13T05:34:41;101238.45;;;15.28;93.08
49463;BME280;35357;51.722;0.500;2023-07-13T05:37:09;101238.76;;;14.74;95.21
49463;BME280;35357;51.722;0.500;2023-07-13T05:39:36;101236.90;;;15.04;94.53
49463;BME280;35357;51.722;0.500;2023-07-13T05:42:03;101237.28;;;14.92;95.63
49463;BME280;35357;51.722;0.500;2023-07-13T05:44:30;101237.61;;;15.05;95.23
49463;BME280;35357;51.722;0.500;2023-07-13T05:46:57;101248.62;;;14.61;97.17
49463;BME280;35357;51.722;0.500;2023-07-13T05:49:24;101252.06;;;16.03;92.06
49463;BME280;35357;51.722;0.500;2023-07-13T05:51:51;101253.46;;;15.86;93.33
49463;BME280;35357;51.722;0.500;2023-07-13T05:54:18;101257.24;;;14.98;96.42
49463;BME280;35357;51.722;0.500;2023-07-13T05:56:44;101257.42;;;15.93;93.63
49463;BME280;35357;51.722;0.500;2023-07-13T05:59:12;101258.89;;;15.36;97.14
49463;BME280;35357;51.722;0.500;2023-07-13T06:01:41;101262.00;;;15.60;95.18
49463;BME280;35357;51.722;0.500;2023-07-13T06:04:08;101263.00;;;14.64;98.05
49463;BME280;35357;51.722;0.500;2023-07-13T06:06:34;101270.15;;;16.16;93.42
49463;BME280;35357;51.722;0.500;2023-07-13T06:09:02;101271.57;;;15.25;96.49
49463;BME280;35357;51.722;0.500;2023-07-13T06:11:29;101272.06;;;15.50;95.34
49463;BME280;35357;51.722;0.500;2023-07-13T06:13:57;101274.85;;;15.67;94.32
49463;BME280;35357;51.722;0.500;2023-07-13T06:16:24;101281.63;;;15.81;93.96
49463;BME280;35357;51.722;0.500;2023-07-13T06:18:52;101282.72;;;16.29;90.59
49463;BME280;35357;51.722;0.500;2023-07-13T06:21:20;101285.38;;;16.83;89.40
49463;BME280;35357;51.722;0.500;2023-07-13T06:23:49;101290.98;;;15.40;94.22
49463;BME280;35357;51.722;0.500;2023-07-13T06:26:17;101295.11;;;15.29;95.01
49463;BME280;35357;51.722;0.500;2023-07-13T06:28:44;101295.93;;;15.05;96.93
49463;BME280;35357;51.722;0.500;2023-07-13T06:31:13;101299.51;;;15.79;94.09
49463;BME280;35357;51.722;0.500;2023-07-13T06:33:41;101300.30;;;15.65;93.70
49463;BME280;35357;51.722;0.500;2023-07-13T06:36:09;101304.34;;;15.93;94.13
49463;BME280;35357;51.722;0.500;2023-07-13T06:38:36;101307.64;;;15.94;92.86
49463;BME280;35357;51.722;0.500;2023-07-13T06:41:05;101304.98;;;15.60;95.89
49463;BME280;35357;51.722;0.500;2023-07-13T06:43:32;101309.18;;;16.85;90.53
49463;BME280;35357;51.722;0.500;2023-07-13T06:45:59;101310.61;;;16.23;91.52
49463;BME280;35357;51.722;0.500;2023-07-13T06:48:28;101316.91;;;16.97;89.09
49463;BME280;35357;51.722;0.500;2023-07-13T06:50:57;101320.46;;;16.88;89.34
49463;BME280;35357;51.722;0.500;2023-07-13T06:53:25;101315.30;;;16.90;91.80
49463;BME280;35357;51.722;0.500;2023-07-13T06:55:52;101316.82;;;17.52;87.63
49463;BME280;35357;51.722;0.500;2023-07-13T06:58:22;101316.40;;;17.16;87.35
49463;BME280;35357;51.722;0.500;2023-07-13T07:00:51;101317.47;;;17.80;85.32
49463;BME280;35357;51.722;0.500;2023-07-13T07:03:19;101322.49;;;16.74;88.22
49463;BME280;35357;51.722;0.500;2023-07-13T07:05:46;101321.14;;;17.89;85.32
49463;BME280;35357;51.722;0.500;2023-07-13T07:08:14;101321.21;;;17.44;86.14
49463;BME280;35357;51.722;0.500;2023-07-13T07:10:42;101315.53;;;17.75;83.88
49463;BME280;35357;51.722;0.500;2023-07-13T07:13:10;101317.15;;;17.30;85.62
49463;BME280;35357;51.722;0.500;2023-07-13T07:15:38;101316.00;;;16.68;89.51
49463;BME280;35357;51.722;0.500;2023-07-13T07:18:06;101312.09;;;17.85;84.18
49463;BME280;35357;51.722;0.500;2023-07-13T07:20:34;101317.69;;;15.55;91.74
49463;BME280;35357;51.722;0.500;2023-07-13T07:23:01;101319.60;;;16.64;88.30
49463;BME280;35357;51.722;0.500;2023-07-13T07:25:29;101324.30;;;16.59;88.67
49463;BME280;35357;51.722;0.500;2023-07-13T07:27:57;101319.54;;;17.41;84.78
49463;BME280;35357;51.722;0.500;2023-07-13T07:30:25;101319.52;;;16.86;87.37
49463;BME280;35357;51.722;0.500;2023-07-13T07:32:53;101322.84;;;18.45;83.21
49463;BME280;35357;51.722;0.500;2023-07-13T07:35:20;101322.00;;;18.81;81.50
49463;BME280;35357;51.722;0.500;2023-07-13T07:37:47;101325.04;;;17.53;84.74
49463;BME280;35357;51.722;0.500;2023-07-13T07:40:15;101331.64;;;17.19;85.10
49463;BME280;35357;51.722;0.500;2023-07-13T07:42:43;101339.12;;;16.34;88.69
49463;BME280;35357;51.722;0.500;2023-07-13T07:45:11;101339.01;;;17.63;84.56
49463;BME280;35357;51.722;0.500;2023-07-13T07:47:38;101338.11;;;17.17;86.18
49463;BME280;35357;51.722;0.500;2023-07-13T07:50:07;101336.22;;;18.13;82.77
49463;BME280;35357;51.722;0.500;2023-07-13T07:52:34;101340.37;;;18.49;81.26
49463;BME280;35357;51.722;0.500;2023-07-13T07:55:06;101344.21;;;18.19;81.61
49463;BME280;35357;51.722;0.500;2023-07-13T07:57:34;101344.84;;;18.37;81.61
49463;BME280;35357;51.722;0.500;2023-07-13T08:00:01;101347.31;;;19.41;78.39
49463;BME280;35357;51.722;0.500;2023-07-13T08:02:29;101342.53;;;19.57;76.81
49463;BME280;35357;51.722;0.500;2023-07-13T08:04:56;101344.47;;;19.01;78.43
49463;BME280;35357;51.722;0.500;2023-07-13T08:07:24;101344.62;;;19.51;77.22
49463;BME280;35357;51.722;0.500;2023-07-13T08:09:53;101348.23;;;18.05;79.35
49463;BME280;35357;51.722;0.500;2023-07-13T08:12:20;101353.93;;;19.51;76.97
49463;BME280;35357;51.722;0.500;2023-07-13T08:14:50;101353.01;;;18.87;79.97
49463;BME280;35357;51.722;0.500;2023-07-13T08:17:18;101354.46;;;19.37;78.27
49463;BME280;35357;51.722;0.500;2023-07-13T08:19:46;101357.28;;;19.52;77.46
49463;BME280;35357;51.722;0.500;2023-07-13T08:22:14;101349.67;;;20.49;73.54
49463;BME280;35357;51.722;0.500;2023-07-13T08:24:42;101348.37;;;20.09;73.64
49463;BME280;35357;51.722;0.500;2023-07-13T08:27:10;101341.44;;;19.57;73.88
49463;BME280;35357;51.722;0.500;2023-07-13T08:29:38;101346.47;;;19.32;73.90
49463;BME280;35357;51.722;0.500;2023-07-13T08:32:07;101347.10;;;20.22;72.10
49463;BME280;35357;51.722;0.500;2023-07-13T08:34:35;101350.52;;;17.90;78.91
49463;BME280;35357;51.722;0.500;2023-07-13T08:37:02;101353.33;;;18.85;77.76
49463;BME280;35357;51.722;0.500;2023-07-13T08:39:30;101348.92;;;19.94;74.80
49463;BME280;35357;51.722;0.500;2023-07-13T08:42:01;101354.18;;;19.79;74.57
49463;BME280;35357;51.722;0.500;2023-07-13T08:44:37;101350.09;;;20.79;71.37
49463;BME280;35357;51.722;0.500;2023-07-13T08:47:07;101350.54;;;20.00;73.22
49463;BME280;35357;51.722;0.500;2023-07-13T08:49:37;101349.96;;;20.47;72.56
49463;BME280;35357;51.722;0.500;2023-07-13T08:52:10;101351.32;;;20.78;70.76
49463;BME280;35357;51.722;0.500;2023-07-13T08:54:45;101350.88;;;21.25;70.25
49463;BME280;35357;51.722;0.500;2023-07-13T08:57:18;101351.42;;;20.22;70.84
49463;BME280;35357;51.722;0.500;2023-07-13T08:59:46;101356.27;;;20.87;70.54
49463;BME280;35357;51.722;0.500;2023-07-13T09:02:24;101353.13;;;20.74;70.51
49463;BME280;35357;51.722;0.500;2023-07-13T09:04:59;101350.52;;;21.67;67.66
49463;BME280;35357;51.722;0.500;2023-07-13T09:07:38;101347.47;;;22.43;66.29
49463;BME280;35357;51.722;0.500;2023-07-13T09:10:15;101349.18;;;20.70;68.76
49463;BME280;35357;51.722;0.500;2023-07-13T09:12:54;101346.38;;;21.07;68.60
49463;BME280;35357;51.722;0.500;2023-07-13T09:15:29;101349.27;;;21.12;66.99
49463;BME280;35357;51.722;0.500;2023-07-13T09:18:01;101353.86;;;19.98;69.00
49463;BME280;35357;51.722;0.500;2023-07-13T09:20:34;101354.21;;;19.61;71.46
49463;BME280;35357;51.722;0.500;2023-07-13T09:23:09;101358.89;;;19.29;72.91
49463;BME280;35357;51.722;0.500;2023-07-13T09:25:38;101352.05;;;21.44;69.16
49463;BME280;35357;51.722;0.500;2023-07-13T09:28:12;101354.39;;;20.53;69.57
49463;BME280;35357;51.722;0.500;2023-07-13T09:30:49;101357.04;;;21.07;68.60
49463;BME280;35357;51.722;0.500;2023-07-13T09:33:17;101357.22;;;20.80;65.87
49463;BME280;35357;51.722;0.500;2023-07-13T09:35:45;101361.46;;;20.44;66.35
49463;BME280;35357;51.722;0.500;2023-07-13T09:38:14;101367.24;;;19.91;68.10
49463;BME280;35357;51.722;0.500;2023-07-13T09:40:53;101370.38;;;19.36;70.53
49463;BME280;35357;51.722;0.500;2023-07-13T09:43:24;101364.19;;;20.80;67.04
49463;BME280;35357;51.722;0.500;2023-07-13T09:45:52;101364.93;;;20.85;66.32
49463;BME280;35357;51.722;0.500;2023-07-13T09:48:19;101368.83;;;20.50;66.98
49463;BME280;35357;51.722;0.500;2023-07-13T09:50:47;101368.10;;;21.19;64.46
49463;BME280;35357;51.722;0.500;2023-07-13T09:53:15;101366.82;;;21.09;64.00
49463;BME280;35357;51.722;0.500;2023-07-13T09:55:45;101366.35;;;21.26;64.80
49463;BME280;35357;51.722;0.500;2023-07-13T09:58:15;101365.68;;;21.15;65.02
49463;BME280;35357;51.722;0.500;2023-07-13T10:00:55;101369.10;;;20.12;65.10
49463;BME280;35357;51.722;0.500;2023-07-13T10:03:25;101368.23;;;21.68;61.99
49463;BME280;35357;51.722;0.500;2023-07-13T10:05:54;101368.27;;;19.06;67.26
49463;BME280;35357;51.722;0.500;2023-07-13T10:08:28;101365.85;;;19.80;67.68
49463;BME280;35357;51.722;0.500;2023-07-13T10:11:02;101369.39;;;19.73;68.10
49463;BME280;35357;51.722;0.500;2023-07-13T10:13:39;101367.55;;;20.47;67.03
49463;BME280;35357;51.722;0.500;2023-07-13T10:16:09;101368.20;;;21.85;64.93
49463;BME280;35357;51.722;0.500;2023-07-13T10:18:42;101368.78;;;21.13;65.26
49463;BME280;35357;51.722;0.500;2023-07-13T10:21:13;101367.82;;;20.73;65.08
49463;BME280;35357;51.722;0.500;2023-07-13T10:23:41;101368.61;;;20.30;67.29
49463;BME280;35357;51.722;0.500;2023-07-13T10:26:15;101366.91;;;20.01;67.72
49463;BME280;35357;51.722;0.500;2023-07-13T10:28:46;101367.28;;;20.07;68.76
49463;BME280;35357;51.722;0.500;2023-07-13T10:31:18;101366.11;;;21.38;66.80
49463;BME280;35357;51.722;0.500;2023-07-13T10:33:48;101363.12;;;22.22;62.77
49463;BME280;35357;51.722;0.500;2023-07-13T10:36:26;101368.44;;;21.79;63.91
49463;BME280;35357;51.722;0.500;2023-07-13T10:38:57;101368.08;;;21.69;61.89
49463;BME280;35357;51.722;0.500;2023-07-13T10:41:27;101362.50;;;22.63;60.98
49463;BME280;35357;51.722;0.500;2023-07-13T10:43:57;101367.25;;;23.15;61.64
49463;BME280;35357;51.722;0.500;2023-07-13T10:46:27;101366.15;;;21.29;60.26
49463;BME280;35357;51.722;0.500;2023-07-13T10:48:59;101366.46;;;21.52;60.10
49463;BME280;35357;51.722;0.500;2023-07-13T10:51:28;101360.61;;;22.64;58.83
49463;BME280;35357;51.722;0.500;2023-07-13T10:54:17;101359.49;;;23.09;58.49
49463;BME280;35357;51.722;0.500;2023-07-13T10:56:45;101357.50;;;23.40;56.67
49463;BME280;35357;51.722;0.500;2023-07-13T10:59:16;101357.47;;;21.78;58.61
49463;BME280;35357;51.722;0.500;2023-07-13T11:01:51;101353.33;;;20.15;63.18
49463;BME280;35357;51.722;0.500;2023-07-13T11:04:20;101352.18;;;21.31;59.97
49463;BME280;35357;51.722;0.500;2023-07-13T11:06:50;101354.14;;;22.19;59.58
49463;BME280;35357;51.722;0.500;2023-07-13T11:09:31;101351.32;;;23.12;56.52
49463;BME280;35357;51.722;0.500;2023-07-13T11:12:00;101344.56;;;22.93;55.19
49463;BME280;35357;51.722;0.500;2023-07-13T11:14:30;101348.58;;;22.18;54.61
49463;BME280;35357;51.722;0.500;2023-07-13T11:16:58;101344.27;;;22.01;55.67
49463;BME280;35357;51.722;0.500;2023-07-13T11:19:40;101345.48;;;22.41;54.61
49463;BME280;35357;51.722;0.500;2023-07-13T11:22:15;101341.37;;;22.69;51.70
49463;BME280;35357;51.722;0.500;2023-07-13T11:24:56;101345.86;;;22.83;53.23
49463;BME280;35357;51.722;0.500;2023-07-13T11:27:38;101348.56;;;22.76;53.34
49463;BME280;35357;51.722;0.500;2023-07-13T11:30:18;101346.53;;;22.04;53.55
49463;BME280;35357;51.722;0.500;2023-07-13T11:32:51;101340.27;;;21.63;54.91
49463;BME280;35357;51.722;0.500;2023-07-13T11:35:22;101344.74;;;21.50;56.26
49463;BME280;35357;51.722;0.500;2023-07-13T11:37:51;101345.04;;;22.56;52.83
49463;BME280;35357;51.722;0.500;2023-07-13T11:40:26;101347.02;;;22.32;51.99
49463;BME280;35357;51.722;0.500;2023-07-13T11:42:59;101351.07;;;23.20;51.58
49463;BME280;35357;51.722;0.500;2023-07-13T11:45:27;101351.52;;;23.43;49.10
49463;BME280;35357;51.722;0.500;2023-07-13T11:47:55;101348.62;;;23.65;49.85
49463;BME280;35357;51.722;0.500;2023-07-13T11:50:24;101350.34;;;23.52;49.38
49463;BME280;35357;51.722;0.500;2023-07-13T11:52:52;101344.49;;;22.67;50.60
49463;BME280;35357;51.722;0.500;2023-07-13T11:55:22;101336.48;;;22.38;52.11
49463;BME280;35357;51.722;0.500;2023-07-13T11:57:51;101341.92;;;23.77;52.07
49463;BME280;35357;51.722;0.500;2023-07-13T12:00:26;101336.88;;;22.07;53.28
49463;BME280;35357;51.722;0.500;2023-07-13T12:02:57;101348.20;;;23.12;49.27
49463;BME280;35357;51.722;0.500;2023-07-13T12:05:26;101344.70;;;22.38;48.83
49463;BME280;35357;51.722;0.500;2023-07-13T12:07:54;101345.95;;;23.42;50.36
49463;BME280;35357;51.722;0.500;2023-07-13T12:10:23;101339.99;;;22.53;50.54
49463;BME280;35357;51.722;0.500;2023-07-13T12:12:53;101343.66;;;22.13;50.42
49463;BME280;35357;51.722;0.500;2023-07-13T12:15:21;101336.78;;;21.96;52.11
49463;BME280;35357;51.722;0.500;2023-07-13T12:17:49;101341.74;;;22.78;52.89
49463;BME280;35357;51.722;0.500;2023-07-13T12:20:21;101337.96;;;21.66;51.39
49463;BME280;35357;51.722;0.500;2023-07-13T12:22:49;101333.70;;;22.53;51.09
49463;BME280;35357;51.722;0.500;2023-07-13T12:25:17;101331.14;;;22.46;50.94
49463;BME280;35357;51.722;0.500;2023-07-13T12:27:47;101334.26;;;23.49;49.01
49463;BME280;35357;51.722;0.500;2023-07-13T12:30:25;101337.86;;;22.53;49.12
49463;BME280;35357;51.722;0.500;2023-07-13T12:33:01;101333.33;;;22.27;51.00
49463;BME280;35357;51.722;0.500;2023-07-13T12:35:29;101336.39;;;23.24;50.95
49463;BME280;35357;51.722;0.500;2023-07-13T12:37:58;101333.35;;;22.80;50.89
49463;BME280;35357;51.722;0.500;2023-07-13T12:40:30;101328.90;;;23.00;49.80
49463;BME280;35357;51.722;0.500;2023-07-13T12:42:59;101328.74;;;23.26;48.79
49463;BME280;35357;51.722;0.500;2023-07-13T12:45:28;101326.15;;;22.45;51.11
49463;BME280;35357;51.722;0.500;2023-07-13T12:47:56;101324.73;;;23.10;50.22
49463;BME280;35357;51.722;0.500;2023-07-13T12:50:30;101319.75;;;24.57;49.85
49463;BME280;35357;51.722;0.500;2023-07-13T12:53:03;101325.84;;;23.41;52.35
49463;BME280;35357;51.722;0.500;2023-07-13T12:55:31;101319.18;;;23.84;49.72
49463;BME280;35357;51.722;0.500;2023-07-13T12:58:16;101310.65;;;24.42;49.21
49463;BME280;35357;51.722;0.500;2023-07-13T13:00:48;101311.45;;;22.77;50.76